Time;durP1;ratioP1;P1;durP2;ratioP2;P2;SDS_P1;SDS_P2;PMS_P1;PMS_P2;Temp;Humidity;BMP_temperature;BMP_pressure;BME280_temperature;BME280_humidity;BME280_pressure;Samples;Min_cycle;Max_cycle;Signal;HPM_P1;HPM_P2
2022/12/12 00:01:45;;;;;;;16.88;11.68;;;4.70;99.90;;;;;;5094555;28;20441;-52
2022/12/12 00:04:11;;;;;;;15.65;11.25;;;4.70;99.90;;;;;;5092435;28;20044;-52
2022/12/12 00:06:37;;;;;;;16.92;10.95;;;4.70;99.90;;;;;;5092377;28;20051;-52
2022/12/12 00:09:03;;;;;;;17.20;11.73;;;4.60;99.90;;;;;;5094269;28;20107;-53
2022/12/12 00:11:30;;;;;;;18.05;11.60;;;4.60;99.90;;;;;;5094213;28;20433;-53
2022/12/12 00:13:56;;;;;;;16.77;11.23;;;4.60;99.90;;;;;;5093650;28;20099;-53
2022/12/12 00:16:23;;;;;;;16.70;11.30;;;4.70;99.90;;;;;;5094194;28;20170;-53
2022/12/12 00:18:49;;;;;;;16.13;11.85;;;4.90;99.90;;;;;;5094332;28;20073;-53
2022/12/12 00:21:19;;;;;;;18.95;12.45;;;4.80;99.90;;;;;;5094274;28;20510;-53
2022/12/12 00:23:45;;;;;;;16.38;11.13;;;4.70;99.90;;;;;;5092125;28;20052;-52
2022/12/12 00:26:32;;;;;;;17.05;10.32;;;4.70;99.90;;;;;;5093978;28;20360;-52
2022/12/12 00:28:59;;;;;;;15.00;9.60;;;4.50;99.90;;;;;;5093477;28;20518;-53
2022/12/12 00:31:25;;;;;;;17.35;10.65;;;4.60;99.90;;;;;;5093963;28;20115;-53
2022/12/12 00:33:51;;;;;;;16.60;10.43;;;4.60;99.90;;;;;;5093826;28;20468;-53
2022/12/12 00:36:20;;;;;;;13.32;8.23;;;4.50;99.90;;;;;;5094088;28;20181;-53
2022/12/12 00:38:46;;;;;;;12.77;8.38;;;4.40;99.90;;;;;;5095112;28;20479;-52
2022/12/12 00:41:12;;;;;;;13.32;8.85;;;4.20;99.90;;;;;;5114234;28;20040;-52
2022/12/12 00:43:38;;;;;;;14.30;10.23;;;4.10;99.90;;;;;;5094805;28;20047;-53
2022/12/12 00:46:04;;;;;;;15.70;10.27;;;4.20;99.90;;;;;;5113785;28;20085;-52
2022/12/12 00:48:30;;;;;;;13.73;9.55;;;4.10;99.90;;;;;;5114053;27;20035;-54
2022/12/12 00:50:57;;;;;;;17.00;11.25;;;4.00;99.90;;;;;;5113526;28;20123;-54
2022/12/12 00:53:23;;;;;;;18.00;11.18;;;4.10;99.90;;;;;;5115347;28;20039;-53
2022/12/12 00:55:56;;;;;;;15.80;11.18;;;4.00;99.90;;;;;;5114473;28;20110;-54
2022/12/12 00:58:22;;;;;;;18.27;12.52;;;4.10;99.90;;;;;;5115959;28;20508;-52
2022/12/12 01:00:48;;;;;;;17.10;11.95;;;4.10;99.90;;;;;;5112318;28;20046;-53
2022/12/12 01:03:14;;;;;;;17.13;12.38;;;4.50;99.90;;;;;;5111193;28;20031;-52
2022/12/12 01:05:40;;;;;;;18.08;12.05;;;4.60;99.90;;;;;;5114070;28;20063;-54
2022/12/12 01:08:05;;;;;;;16.55;12.23;;;4.70;99.90;;;;;;5114288;28;20028;-54
2022/12/12 01:10:33;;;;;;;17.23;12.32;;;4.80;99.90;;;;;;5113758;28;20024;-52
2022/12/12 01:12:59;;;;;;;14.82;9.88;;;5.00;99.90;;;;;;5113486;28;20036;-51
2022/12/12 01:15:25;;;;;;;11.05;7.22;;;4.50;99.90;;;;;;5113636;28;20032;-53
2022/12/12 01:17:52;;;;;;;16.67;10.05;;;4.10;99.90;;;;;;5113289;28;20036;-53
2022/12/12 01:20:21;;;;;;;12.38;7.93;;;3.90;99.90;;;;;;5113890;28;20104;-53
2022/12/12 01:22:48;;;;;;;15.55;10.50;;;3.60;99.90;;;;;;5113358;28;20116;-54
2022/12/12 01:25:16;;;;;;;14.55;9.25;;;3.50;99.90;;;;;;5114348;28;20070;-53
2022/12/12 01:27:42;;;;;;;12.40;8.40;;;3.40;99.90;;;;;;5120419;27;20027;-52
2022/12/12 01:30:12;;;;;;;15.48;9.55;;;3.20;99.90;;;;;;5101346;28;20116;-53
2022/12/12 01:32:38;;;;;;;16.23;11.60;;;3.10;99.90;;;;;;5120614;27;20019;-53
2022/12/12 01:35:07;;;;;;;14.40;8.52;;;3.30;99.90;;;;;;5120117;27;20038;-53
2022/12/12 01:37:33;;;;;;;15.55;8.65;;;3.20;99.90;;;;;;5120440;27;20035;-52
2022/12/12 01:39:59;;;;;;;16.42;11.00;;;2.90;99.90;;;;;;5120028;27;20031;-53
2022/12/12 01:42:25;;;;;;;10.73;7.30;;;2.90;99.90;;;;;;5101323;28;20502;-52
2022/12/12 01:44:52;;;;;;;18.35;12.02;;;2.90;99.90;;;;;;5120343;27;20035;-53
2022/12/12 01:47:21;;;;;;;10.48;5.32;;;3.10;99.90;;;;;;5120182;27;20031;-54
2022/12/12 01:50:08;;;;;;;13.45;7.75;;;2.90;99.90;;;;;;5119940;27;20084;-54
2022/12/12 01:52:42;;;;;;;17.55;11.38;;;2.70;99.90;;;;;;5120096;27;20039;-53
2022/12/12 01:55:14;;;;;;;15.73;10.07;;;2.70;99.90;;;;;;5101076;28;20104;-52
2022/12/12 01:57:45;;;;;;;19.90;12.07;;;2.80;99.90;;;;;;5120047;27;20449;-53
2022/12/12 02:00:12;;;;;;;19.63;12.38;;;2.60;99.90;;;;;;5120381;27;20036;-52
2022/12/12 02:02:42;;;;;;;19.60;11.63;;;2.70;99.90;;;;;;5120261;27;20431;-52
2022/12/12 02:05:33;;;;;;;17.40;11.50;;;2.70;99.90;;;;;;5119485;28;20075;-54
2022/12/12 02:08:02;;;;;;;20.15;12.00;;;2.70;99.90;;;;;;5119788;27;20064;-52
2022/12/12 02:10:28;;;;;;;18.80;12.25;;;2.90;99.90;;;;;;5117762;28;20128;-53
2022/12/12 02:13:02;;;;;;;21.35;13.68;;;2.90;99.90;;;;;;5066833;28;20047;-53
2022/12/12 02:15:40;;;;;;;17.08;12.15;;;3.00;99.90;;;;;;5117820;28;20398;-52
2022/12/12 02:18:24;;;;;;;18.58;12.95;;;3.20;99.90;;;;;;5117499;28;20058;-54
2022/12/12 02:21:22;;;;;;;19.20;12.80;;;3.40;99.90;;;;;;5117444;28;20043;-54
2022/12/12 02:24:05;;;;;;;19.33;13.27;;;3.40;99.90;;;;;;5102052;28;20483;-52
2022/12/12 02:27:04;;;;;;;18.88;13.00;;;3.50;99.90;;;;;;5117687;28;20036;-52
2022/12/12 02:29:42;;;;;;;19.63;13.35;;;3.50;99.90;;;;;;5117403;28;20063;-53
2022/12/12 02:32:12;;;;;;;18.10;12.73;;;3.70;99.90;;;;;;5117399;28;20468;-53
2022/12/12 02:35:11;;;;;;;18.48;12.43;;;3.80;99.90;;;;;;5117832;28;20038;-53
2022/12/12 02:37:58;;;;;;;18.92;12.98;;;3.70;99.90;;;;;;5074469;28;20040;-53
2022/12/12 02:40:28;;;;;;;19.50;12.60;;;3.60;99.90;;;;;;5073584;28;20561;-52
2022/12/12 02:43:18;;;;;;;18.80;12.57;;;3.70;99.90;;;;;;5073673;28;20076;-54
2022/12/12 02:45:54;;;;;;;22.92;13.98;;;3.70;99.90;;;;;;5014058;28;20050;-51
2022/12/12 02:48:53;;;;;;;18.95;12.18;;;3.70;99.90;;;;;;4994182;28;20375;-54
2022/12/12 02:51:20;;;;;;;18.27;12.70;;;3.60;99.90;;;;;;5009922;28;20056;-58
2022/12/12 02:53:46;;;;;;;20.08;13.05;;;3.40;99.90;;;;;;4997272;28;20034;-58
2022/12/12 02:56:44;;;;;;;17.55;11.02;;;3.60;99.90;;;;;;4994134;28;20100;-53
2022/12/12 02:59:33;;;;;;;17.10;11.18;;;3.50;99.90;;;;;;4993802;28;20030;-54
2022/12/12 03:02:16;;;;;;;18.05;12.05;;;3.20;99.90;;;;;;4994345;28;20050;-58
2022/12/12 03:08:20;;;;;;;19.52;11.98;;;3.20;99.90;;;;;;4993967;28;20053;-53
2022/12/12 03:10:49;;;;;;;16.70;11.55;;;3.30;99.90;;;;;;4994140;28;20061;-52
2022/12/12 03:13:36;;;;;;;17.30;11.50;;;2.80;99.90;;;;;;4995059;28;20255;-53
2022/12/12 03:16:17;;;;;;;15.05;9.93;;;3.20;99.90;;;;;;5055402;28;20509;-53
2022/12/12 03:18:46;;;;;;;17.48;10.63;;;3.20;99.90;;;;;;5058613;28;20044;-54
2022/12/12 03:21:18;;;;;;;16.35;10.40;;;3.20;99.90;;;;;;5074975;28;20527;-51
2022/12/12 03:23:50;;;;;;;16.88;11.60;;;3.20;99.90;;;;;;5111932;28;20051;-52
2022/12/12 03:26:55;;;;;;;17.23;12.25;;;3.30;99.90;;;;;;5115753;27;20096;-52
2022/12/12 03:29:45;;;;;;;14.40;10.15;;;3.20;99.90;;;;;;5093176;28;20491;-55
2022/12/12 03:32:18;;;;;;;14.70;9.23;;;3.00;99.90;;;;;;5092009;28;20039;-53
2022/12/12 03:34:51;;;;;;;11.63;8.00;;;2.90;99.90;;;;;;5094521;28;20045;-53
2022/12/12 03:37:34;;;;;;;11.15;7.22;;;2.70;99.90;;;;;;5092935;28;20044;-52
2022/12/12 03:40:09;;;;;;;9.82;6.10;;;2.50;99.90;;;;;;5092668;28;20142;-53
2022/12/12 03:42:42;;;;;;;11.95;7.07;;;2.40;99.90;;;;;;5092618;28;20028;-52
2022/12/12 03:45:13;;;;;;;11.38;6.63;;;2.30;99.90;;;;;;5092554;28;20110;-51
2022/12/12 03:47:49;;;;;;;6.97;4.75;;;;;;;;;;5092704;28;20028;-53
2022/12/12 03:50:25;;;;;;;7.50;4.68;;;2.10;99.90;;;;;;5091351;28;20467;-52
2022/12/12 03:53:02;;;;;;;7.88;5.93;;;2.00;99.90;;;;;;5092700;28;20031;-52
2022/12/12 03:55:44;;;;;;;12.82;7.43;;;2.00;99.90;;;;;;5092451;28;20483;-53
2022/12/12 03:58:18;;;;;;;13.57;9.20;;;2.20;99.90;;;;;;5092449;28;20044;-52
2022/12/12 04:00:48;;;;;;;9.60;7.35;;;2.30;99.90;;;;;;5092254;28;20491;-53
2022/12/12 04:03:24;;;;;;;13.55;9.68;;;2.10;99.90;;;;;;5092230;28;20039;-53
2022/12/12 04:15:01;;;;;;;13.25;9.32;;;2.60;99.90;;;;;;5114544;28;20088;-52
2022/12/12 04:17:43;;;;;;;12.38;8.55;;;2.60;99.90;;;;;;5114464;28;20035;-52
2022/12/12 04:23:29;;;;;;;15.30;8.63;;;2.50;99.90;;;;;;5117406;28;20103;-53
2022/12/12 04:29:18;;;;;;;13.02;8.60;;;2.20;99.90;;;;;;5114481;28;20063;-52
2022/12/12 04:32:06;;;;;;;13.27;9.18;;;2.20;99.90;;;;;;5113948;28;20028;-52
2022/12/12 04:34:46;;;;;;;13.88;9.35;;;2.20;99.90;;;;;;5114180;28;20087;-52
2022/12/12 04:37:15;;;;;;;6.70;4.13;;;2.20;99.90;;;;;;5114285;28;20038;-53
2022/12/12 04:39:45;;;;;;;11.20;7.95;;;1.90;99.90;;;;;;5114412;28;20106;-54
2022/12/12 04:42:14;;;;;;;9.70;6.85;;;2.20;99.90;;;;;;5112127;28;20027;-54
2022/12/12 04:44:42;;;;;;;13.43;8.20;;;2.10;99.90;;;;;;5114024;28;20042;-54
2022/12/12 04:47:10;;;;;;;11.32;7.25;;;2.30;99.90;;;;;;5113903;28;20049;-52
2022/12/12 04:49:38;;;;;;;9.00;6.32;;;2.20;99.90;;;;;;5094902;28;20069;-53
2022/12/12 04:52:10;;;;;;;10.45;6.93;;;2.30;99.90;;;;;;5114916;28;20063;-53
2022/12/12 04:54:59;;;;;;;13.15;8.35;;;2.10;99.90;;;;;;5049383;28;20134;-52
2022/12/12 04:57:31;;;;;;;11.88;7.95;;;2.20;99.90;;;;;;5092077;28;20119;-57
2022/12/12 04:59:57;;;;;;;9.75;7.13;;;2.50;99.90;;;;;;5042883;28;20143;-52
2022/12/12 05:02:38;;;;;;;12.30;8.98;;;2.40;99.90;;;;;;5092419;28;20484;-53
2022/12/12 05:05:37;;;;;;;12.90;9.25;;;2.60;99.90;;;;;;5092933;28;20052;-52
2022/12/12 05:08:24;;;;;;;12.73;7.63;;;2.70;99.90;;;;;;5092652;28;20036;-54
2022/12/12 05:10:53;;;;;;;12.95;8.95;;;2.60;99.90;;;;;;5057215;28;20399;-54
2022/12/12 05:13:22;;;;;;;12.23;8.73;;;2.60;99.90;;;;;;5087997;28;20109;-54
2022/12/12 05:15:51;;;;;;;13.35;9.98;;;2.50;99.90;;;;;;5090413;28;20113;-54
2022/12/12 05:18:18;;;;;;;12.90;9.40;;;2.70;99.90;;;;;;5090474;28;20400;-53
2022/12/12 05:20:44;;;;;;;13.60;9.27;;;2.90;99.90;;;;;;5090262;28;20395;-52
2022/12/12 05:23:10;;;;;;;12.02;8.13;;;3.00;99.90;;;;;;5090776;28;20036;-53
2022/12/12 05:25:36;;;;;;;13.15;9.10;;;2.90;99.90;;;;;;5102215;28;20478;-53
2022/12/12 05:28:01;;;;;;;12.60;9.05;;;2.80;99.90;;;;;;5112677;28;20415;-53
2022/12/12 05:30:28;;;;;;;13.65;9.95;;;2.70;99.90;;;;;;5113119;28;20127;-54
2022/12/12 05:32:53;;;;;;;11.82;8.55;;;2.70;99.90;;;;;;5112070;28;20059;-52
2022/12/12 05:35:20;;;;;;;13.00;8.10;;;2.60;99.90;;;;;;5113808;28;20104;-52
2022/12/12 05:37:46;;;;;;;14.60;10.05;;;2.60;99.90;;;;;;5113296;28;20036;-53
2022/12/12 05:40:12;;;;;;;12.02;9.57;;;2.70;99.90;;;;;;5113629;28;20031;-52
2022/12/12 05:42:39;;;;;;;10.77;7.95;;;2.60;99.90;;;;;;5113672;28;20032;-54
2022/12/12 05:45:06;;;;;;;14.20;9.43;;;2.60;99.90;;;;;;5112337;28;20038;-53
2022/12/12 05:47:33;;;;;;;12.60;8.02;;;2.60;99.90;;;;;;5110658;28;20051;-53
2022/12/12 05:49:58;;;;;;;18.90;11.63;;;2.50;99.90;;;;;;5093274;28;20079;-53
2022/12/12 05:52:24;;;;;;;12.85;8.68;;;2.70;99.90;;;;;;5094611;28;20491;-54
2022/12/12 05:54:50;;;;;;;13.43;9.98;;;2.70;99.90;;;;;;5115044;28;20413;-54
2022/12/12 05:57:17;;;;;;;12.98;9.73;;;2.70;99.90;;;;;;5113415;28;20023;-54
2022/12/12 05:59:44;;;;;;;15.77;10.55;;;2.70;99.90;;;;;;5112722;28;20035;-53
2022/12/12 06:02:11;;;;;;;13.27;9.65;;;2.60;99.90;;;;;;5112687;28;20034;-55
2022/12/12 06:04:36;;;;;;;13.73;10.50;;;2.60;99.90;;;;;;5112822;28;20074;-54
2022/12/12 06:07:02;;;;;;;17.50;12.95;;;2.60;99.90;;;;;;5060329;28;20490;-53
2022/12/12 06:09:28;;;;;;;18.83;11.85;;;2.70;99.90;;;;;;5113113;28;20467;-54
2022/12/12 06:11:54;;;;;;;25.30;13.43;;;2.80;99.90;;;;;;5112934;28;20031;-58
2022/12/12 06:14:20;;;;;;;27.70;16.50;;;2.90;99.90;;;;;;5108351;27;20032;-54
2022/12/12 06:16:45;;;;;;;13.85;9.93;;;2.90;99.90;;;;;;5086343;27;20035;-54
2022/12/12 06:19:11;;;;;;;17.88;12.20;;;3.00;99.90;;;;;;5100941;27;20046;-54
2022/12/12 06:21:37;;;;;;;16.45;11.07;;;2.90;99.90;;;;;;5135254;27;20188;-54
2022/12/12 06:24:06;;;;;;;15.52;10.90;;;2.90;99.90;;;;;;5135150;27;20031;-54
2022/12/12 06:26:32;;;;;;;15.50;11.30;;;3.00;99.90;;;;;;5128244;27;20126;-54
2022/12/12 06:28:58;;;;;;;15.23;11.57;;;3.00;99.90;;;;;;5087833;27;20126;-54
2022/12/12 06:31:24;;;;;;;24.67;17.35;;;3.20;99.90;;;;;;5125315;27;20548;-54
2022/12/12 06:33:50;;;;;;;14.52;9.52;;;3.30;99.90;;;;;;5124073;27;20530;-54
2022/12/12 06:36:22;;;;;;;23.90;15.73;;;3.30;99.90;;;;;;5106330;28;20058;-54
2022/12/12 06:38:54;;;;;;;17.00;12.63;;;3.20;99.90;;;;;;5114401;28;20040;-54
2022/12/12 06:41:22;;;;;;;19.17;12.77;;;3.30;99.90;;;;;;5114410;28;20040;-54
2022/12/12 06:43:47;;;;;;;20.60;14.35;;;3.30;99.90;;;;;;5114409;28;20074;-55
2022/12/12 06:46:18;;;;;;;18.50;13.20;;;3.20;99.90;;;;;;5120943;27;20061;-54
2022/12/12 06:48:45;;;;;;;26.65;16.50;;;3.30;99.90;;;;;;5099287;27;20192;-54
2022/12/12 06:51:14;;;;;;;21.08;14.63;;;3.30;99.90;;;;;;5095827;28;20028;-54
2022/12/12 06:53:40;;;;;;;19.48;8.73;;;3.40;99.90;;;;;;5095864;28;20024;-54
2022/12/12 06:56:14;;;;;;;20.52;13.10;;;3.10;99.90;;;;;;5095688;28;20024;-54
2022/12/12 06:58:40;;;;;;;21.63;13.10;;;3.00;99.90;;;;;;5095900;28;20055;-54
2022/12/12 07:01:06;;;;;;;19.75;12.30;;;3.00;99.90;;;;;;5102063;28;20100;-54
2022/12/12 07:03:33;;;;;;;24.90;15.55;;;3.00;99.90;;;;;;5116089;28;20035;-54
2022/12/12 07:05:59;;;;;;;25.80;15.63;;;3.10;99.90;;;;;;5116004;28;20035;-54
2022/12/12 07:08:27;;;;;;;25.05;16.38;;;3.20;99.90;;;;;;5116452;28;20047;-54
2022/12/12 07:10:53;;;;;;;20.10;14.25;;;3.20;99.90;;;;;;5115989;28;20386;-54
2022/12/12 07:13:19;;;;;;;17.45;10.93;;;3.30;99.90;;;;;;5115930;28;20027;-54
2022/12/12 07:15:49;;;;;;;18.58;11.70;;;3.10;99.90;;;;;;5114671;28;20032;-54
2022/12/12 07:18:17;;;;;;;18.35;9.70;;;3.10;99.90;;;;;;5114511;28;20042;-54
2022/12/12 07:20:45;;;;;;;13.38;8.23;;;3.20;99.90;;;;;;5115824;27;20031;-54
2022/12/12 07:23:11;;;;;;;17.85;11.90;;;3.20;99.90;;;;;;5114461;27;20039;-54
2022/12/12 07:25:42;;;;;;;19.58;14.07;;;3.40;99.90;;;;;;5110305;27;20031;-54
2022/12/12 07:28:09;;;;;;;16.77;12.05;;;3.30;99.90;;;;;;5108685;28;20115;-54
2022/12/12 07:30:38;;;;;;;16.85;12.13;;;3.30;99.90;;;;;;5111244;28;20027;-54
2022/12/12 07:33:04;;;;;;;18.13;11.73;;;3.40;99.90;;;;;;5107970;28;20390;-54
2022/12/12 07:35:29;;;;;;;15.60;11.00;;;3.50;99.90;;;;;;5111865;28;20020;-53
2022/12/12 07:37:55;;;;;;;16.75;11.48;;;3.50;99.90;;;;;;5094965;28;20491;-53
2022/12/12 07:40:22;;;;;;;16.02;11.25;;;3.60;99.90;;;;;;5097312;28;20055;-54
2022/12/12 07:42:48;;;;;;;17.33;11.63;;;3.80;99.90;;;;;;5118002;28;20019;-54
2022/12/12 07:45:13;;;;;;;15.45;11.25;;;4.00;99.90;;;;;;5109746;28;20078;-54
2022/12/12 07:47:39;;;;;;;15.70;11.48;;;4.20;99.90;;;;;;5105002;28;20028;-61
2022/12/12 07:50:05;;;;;;;27.88;17.92;;;4.20;99.90;;;;;;5113045;28;20030;-57
2022/12/12 07:52:31;;;;;;;16.40;11.57;;;4.30;99.90;;;;;;5115138;28;20023;-58
2022/12/12 07:54:57;;;;;;;19.27;12.68;;;4.30;99.90;;;;;;5119121;28;20378;-54
2022/12/12 07:57:22;;;;;;;15.48;10.88;;;4.20;99.90;;;;;;5110439;27;20032;-54
2022/12/12 07:59:48;;;;;;;17.23;11.65;;;4.00;99.90;;;;;;5110265;28;20027;-53
2022/12/12 08:02:14;;;;;;;17.15;12.27;;;4.20;99.90;;;;;;5115390;28;20099;-53
2022/12/12 08:04:40;;;;;;;22.48;15.15;;;4.30;99.90;;;;;;5115074;28;20035;-53
2022/12/12 08:07:05;;;;;;;21.33;14.60;;;4.40;99.90;;;;;;5115641;28;20027;-53
2022/12/12 08:09:31;;;;;;;19.83;14.57;;;4.40;99.90;;;;;;5115090;28;20035;-53
2022/12/12 08:11:58;;;;;;;21.45;16.23;;;4.30;99.90;;;;;;5096372;28;20535;-53
2022/12/12 08:14:25;;;;;;;16.65;11.70;;;4.30;99.90;;;;;;5108992;28;20071;-53
2022/12/12 08:16:51;;;;;;;20.75;14.55;;;4.20;99.90;;;;;;5108450;28;20054;-53
2022/12/12 08:19:17;;;;;;;18.00;11.43;;;4.30;99.90;;;;;;5113084;28;20035;-53
2022/12/12 08:21:44;;;;;;;16.88;12.10;;;4.00;99.90;;;;;;5092780;28;20364;-53
2022/12/12 08:24:12;;;;;;;20.67;13.98;;;4.10;99.90;;;;;;5114649;28;20032;-49
2022/12/12 08:26:38;;;;;;;22.40;14.93;;;4.20;99.90;;;;;;5108371;28;20051;-55
2022/12/12 08:29:04;;;;;;;16.55;11.20;;;4.10;99.90;;;;;;5092724;28;20448;-52
2022/12/12 08:31:30;;;;;;;17.45;9.38;;;3.70;99.90;;;;;;5101743;28;20450;-59
2022/12/12 08:33:57;;;;;;;14.38;11.27;;;3.60;99.90;;;;;;5112595;28;20035;-55
2022/12/12 08:36:29;;;;;;;14.43;10.48;;;3.60;99.90;;;;;;5113610;28;20063;-56
2022/12/12 08:38:56;;;;;;;16.77;11.90;;;3.50;99.90;;;;;;5106683;28;20036;-55
2022/12/12 08:41:22;;;;;;;19.73;13.38;;;3.60;99.90;;;;;;5111729;28;20038;-55
2022/12/12 08:43:48;;;;;;;10.88;7.45;;;3.50;99.90;;;;;;5113150;28;20031;-55
2022/12/12 08:46:16;;;;;;;10.20;6.78;;;3.40;99.90;;;;;;5113101;28;20102;-55
2022/12/12 08:48:42;;;;;;;16.15;11.57;;;3.30;99.90;;;;;;5113043;28;20015;-55
2022/12/12 08:51:07;;;;;;;15.90;10.52;;;3.40;99.90;;;;;;5112323;28;20024;-56
2022/12/12 08:53:33;;;;;;;20.77;14.20;;;3.50;99.90;;;;;;5112836;28;20027;-56
2022/12/12 08:55:59;;;;;;;20.05;15.00;;;3.60;99.90;;;;;;5112924;28;20028;-55
2022/12/12 08:58:25;;;;;;;18.48;13.43;;;4.00;99.90;;;;;;5112725;28;20020;-56
2022/12/12 09:00:51;;;;;;;15.98;11.98;;;3.90;99.90;;;;;;5112566;28;20070;-55
2022/12/12 09:03:18;;;;;;;23.40;15.52;;;4.00;99.90;;;;;;5108101;28;20383;-55
2022/12/12 09:05:44;;;;;;;16.73;11.18;;;4.00;99.90;;;;;;5107551;28;20035;-55
2022/12/12 09:08:11;;;;;;;18.90;12.98;;;3.80;99.90;;;;;;5078497;28;20116;-55
2022/12/12 09:10:37;;;;;;;23.48;14.63;;;3.90;99.90;;;;;;5078435;28;20058;-56
2022/12/12 09:13:05;;;;;;;20.25;12.65;;;3.90;99.90;;;;;;5075742;28;20032;-55
2022/12/12 09:15:35;;;;;;;20.20;13.55;;;3.90;99.90;;;;;;5079082;28;20032;-55
2022/12/12 09:18:02;;;;;;;19.38;13.32;;;4.10;99.90;;;;;;5085078;28;20040;-55
2022/12/12 09:20:27;;;;;;;20.27;14.25;;;4.20;99.90;;;;;;5091190;28;20487;-55
2022/12/12 09:22:53;;;;;;;21.58;16.70;;;4.20;99.90;;;;;;5073983;28;20040;-56
2022/12/12 09:25:20;;;;;;;21.45;12.20;;;4.40;99.90;;;;;;5024209;28;20484;-55
2022/12/12 09:27:46;;;;;;;44.88;21.92;;;4.30;99.90;;;;;;5071144;28;20063;-55
2022/12/12 09:30:13;;;;;;;34.97;19.75;;;4.00;99.90;;;;;;5070499;28;20097;-55
2022/12/12 09:32:39;;;;;;;39.10;20.98;;;4.00;99.90;;;;;;5075658;28;20511;-55
2022/12/12 09:35:05;;;;;;;38.10;19.08;;;3.80;99.90;;;;;;5050588;28;20060;-55
2022/12/12 09:37:30;;;;;;;25.30;14.85;;;3.80;99.90;;;;;;5017668;28;20144;-55
2022/12/12 09:39:56;;;;;;;28.40;16.95;;;3.70;99.90;;;;;;5085382;28;20032;-55
2022/12/12 09:42:31;;;;;;;19.83;12.18;;;3.70;99.90;;;;;;5093005;28;20043;-55
2022/12/12 09:45:01;;;;;;;20.08;13.50;;;3.60;99.90;;;;;;5093006;28;20532;-55
2022/12/12 09:47:59;;;;;;;19.77;13.40;;;3.80;99.90;;;;;;5096000;28;20051;-55
2022/12/12 09:50:37;;;;;;;16.83;11.95;;;4.20;99.90;;;;;;5054745;28;20048;-55
2022/12/12 09:53:09;;;;;;;17.35;11.60;;;4.20;99.90;;;;;;5054666;28;20029;-55
2022/12/12 09:55:45;;;;;;;15.63;11.05;;;4.10;99.90;;;;;;5054606;28;20140;-55
2022/12/12 09:58:37;;;;;;;14.95;10.30;;;4.20;99.90;;;;;;5065977;28;20039;-55
2022/12/12 10:01:26;;;;;;;11.75;8.30;;;4.20;99.90;;;;;;5074567;28;20060;-55
2022/12/12 10:04:19;;;;;;;18.77;13.45;;;4.20;99.90;;;;;;5074408;28;20064;-55
2022/12/12 10:06:52;;;;;;;17.55;12.23;;;4.30;99.90;;;;;;5074505;28;20036;-55
2022/12/12 10:09:40;;;;;;;14.25;10.70;;;4.20;99.90;;;;;;5074342;28;20086;-55
2022/12/12 10:12:12;;;;;;;14.13;10.00;;;4.10;99.90;;;;;;5072046;28;20029;-56
2022/12/12 10:14:49;;;;;;;16.38;12.75;;;4.10;99.90;;;;;;5072781;28;20042;-55
2022/12/12 10:17:27;;;;;;;21.30;13.38;;;4.30;99.90;;;;;;5074200;28;20036;-55
2022/12/12 10:19:57;;;;;;;19.42;13.50;;;4.40;99.90;;;;;;5074030;28;20507;-55
2022/12/12 10:22:31;;;;;;;20.90;14.32;;;4.30;99.90;;;;;;5001122;28;20572;-55
2022/12/12 10:25:22;;;;;;;45.78;28.10;;;4.20;99.90;;;;;;5033909;28;20490;-56
2022/12/12 10:28:09;;;;;;;26.67;18.13;;;4.20;99.90;;;;;;5011298;28;20041;-56
2022/12/12 10:30:48;;;;;;;18.05;12.50;;;4.40;99.90;;;;;;4997823;28;20050;-55
2022/12/12 10:33:37;;;;;;;19.02;12.95;;;4.40;99.90;;;;;;5014184;28;20104;-55
2022/12/12 10:36:22;;;;;;;18.77;12.13;;;4.60;99.90;;;;;;5013870;28;20117;-55
2022/12/12 10:39:00;;;;;;;21.05;13.02;;;4.70;99.90;;;;;;5013710;28;20168;-57
2022/12/12 10:41:47;;;;;;;27.45;17.48;;;4.50;99.90;;;;;;5012494;28;20038;-55
2022/12/12 10:44:42;;;;;;;23.63;18.02;;;4.50;99.90;;;;;;4980563;28;20056;-55
2022/12/12 10:47:11;;;;;;;16.98;12.70;;;4.70;99.90;;;;;;5010794;28;20045;-57
2022/12/12 10:49:39;;;;;;;23.88;16.10;;;4.60;99.90;;;;;;5013727;28;20485;-55
2022/12/12 10:52:17;;;;;;;16.75;12.48;;;4.50;99.90;;;;;;5011861;28;20087;-55
2022/12/12 10:54:57;;;;;;;17.88;11.85;;;4.70;99.90;;;;;;5046460;28;20468;-55
2022/12/12 10:57:34;;;;;;;25.92;16.90;;;4.50;99.90;;;;;;5053673;28;20025;-56
2022/12/12 11:00:25;;;;;;;19.65;14.65;;;4.60;99.90;;;;;;5052267;28;20388;-56
2022/12/12 11:02:55;;;;;;;15.47;11.53;;;4.70;99.90;;;;;;5053177;28;20102;-56
2022/12/12 11:05:30;;;;;;;16.08;12.55;;;4.70;99.90;;;;;;5096011;28;20288;-55
2022/12/12 11:08:03;;;;;;;14.70;10.35;;;4.50;99.90;;;;;;5116499;28;20522;-55
2022/12/12 11:10:34;;;;;;;16.25;11.90;;;4.60;99.90;;;;;;5115874;28;20027;-56
2022/12/12 11:13:09;;;;;;;17.42;11.88;;;4.60;99.90;;;;;;5115705;28;20019;-56
2022/12/12 11:15:49;;;;;;;15.23;11.18;;;4.70;99.90;;;;;;5115891;28;20378;-56
2022/12/12 11:18:20;;;;;;;20.10;13.45;;;4.50;99.90;;;;;;5115101;28;20081;-56
2022/12/12 11:20:59;;;;;;;14.98;11.07;;;4.60;99.90;;;;;;5072944;28;20041;-55
2022/12/12 11:23:27;;;;;;;18.23;11.27;;;4.60;99.90;;;;;;5072489;28;20052;-56
2022/12/12 11:26:00;;;;;;;17.52;10.85;;;4.70;99.90;;;;;;5070996;28;20079;-56
2022/12/12 11:28:32;;;;;;;13.35;9.73;;;4.40;99.90;;;;;;5071508;28;20520;-55
2022/12/12 11:31:06;;;;;;;12.43;7.63;;;4.30;99.90;;;;;;5071477;28;20078;-55
2022/12/12 11:33:50;;;;;;;15.35;10.45;;;4.10;99.90;;;;;;5071464;28;20539;-56
2022/12/12 11:36:21;;;;;;;14.88;10.23;;;4.20;99.90;;;;;;5068548;28;20060;-56
2022/12/12 11:38:53;;;;;;;15.73;10.93;;;4.30;99.90;;;;;;5070795;28;20513;-56
2022/12/12 11:41:19;;;;;;;16.52;10.73;;;4.50;99.90;;;;;;5070669;28;20041;-56
2022/12/12 11:43:48;;;;;;;13.63;9.32;;;4.50;99.90;;;;;;5067925;28;20035;-56
2022/12/12 11:46:13;;;;;;;14.00;10.13;;;4.50;99.90;;;;;;5070503;28;20036;-56
2022/12/12 11:48:46;;;;;;;16.30;11.30;;;4.50;99.90;;;;;;5070972;28;20561;-55
2022/12/12 11:51:13;;;;;;;18.23;12.25;;;4.30;99.90;;;;;;5082623;28;20046;-55
2022/12/12 11:53:42;;;;;;;14.45;11.48;;;4.60;99.90;;;;;;5113986;28;20027;-56
2022/12/12 11:56:42;;;;;;;19.73;12.68;;;4.80;99.90;;;;;;5114247;28;20043;-56
2022/12/12 11:59:40;;;;;;;41.97;20.83;;;4.70;99.90;;;;;;5113937;28;20394;-56
2022/12/12 12:02:32;;;;;;;46.85;23.10;;;4.70;99.90;;;;;;5114118;28;20047;-57
2022/12/12 12:05:16;;;;;;;32.78;17.65;;;4.70;99.90;;;;;;5114014;28;20118;-56
2022/12/12 12:08:11;;;;;;;18.70;13.85;;;4.60;99.90;;;;;;5112253;28;20634;-56
2022/12/12 12:10:52;;;;;;;28.65;16.50;;;4.80;99.90;;;;;;5111988;28;20015;-57
2022/12/12 12:13:56;;;;;;;21.15;12.43;;;4.70;99.90;;;;;;5113363;28;20027;-55
2022/12/12 12:16:43;;;;;;;23.45;13.77;;;4.30;99.90;;;;;;5114030;28;20035;-55
2022/12/12 12:19:23;;;;;;;27.67;16.77;;;4.60;99.90;;;;;;5114539;28;20035;-56
2022/12/12 12:22:01;;;;;;;28.60;18.02;;;4.60;99.90;;;;;;5114578;28;20030;-55
2022/12/12 12:24:38;;;;;;;22.83;15.55;;;4.70;99.90;;;;;;5114405;28;20032;-55
2022/12/12 12:27:36;;;;;;;30.27;19.98;;;4.80;99.90;;;;;;5114615;28;20027;-56
2022/12/12 12:30:12;;;;;;;23.98;16.02;;;5.00;99.90;;;;;;5114307;28;20050;-54
2022/12/12 12:33:14;;;;;;;17.25;12.73;;;5.00;99.90;;;;;;5114623;28;20023;-55
2022/12/12 12:36:08;;;;;;;20.92;14.25;;;4.70;99.90;;;;;;5051520;28;20191;-53
2022/12/12 12:39:00;;;;;;;18.95;12.52;;;4.90;99.90;;;;;;4972833;28;20434;-54
2022/12/12 12:41:46;;;;;;;16.30;12.32;;;4.80;99.90;;;;;;4970061;28;20042;-55
2022/12/12 12:44:33;;;;;;;17.17;11.43;;;4.90;99.90;;;;;;4962691;28;20047;-55
2022/12/12 12:47:11;;;;;;;14.82;10.45;;;4.90;99.90;;;;;;4972861;28;20054;-55
2022/12/12 12:49:49;;;;;;;19.10;12.40;;;4.90;99.90;;;;;;4972309;28;20050;-55
2022/12/12 12:52:44;;;;;;;30.05;20.25;;;4.90;99.90;;;;;;4970617;28;20129;-52
2022/12/12 12:55:17;;;;;;;23.65;15.88;;;5.00;99.90;;;;;;4972098;28;20044;-55
2022/12/12 12:57:45;;;;;;;41.50;27.88;;;5.20;99.90;;;;;;4939505;28;20047;-52
2022/12/12 13:00:15;;;;;;;31.60;21.23;;;5.30;99.90;;;;;;4971998;28;20031;-50
2022/12/12 13:02:53;;;;;;;15.80;11.45;;;5.40;99.90;;;;;;4971495;28;20223;-58
2022/12/12 13:05:22;;;;;;;25.33;17.85;;;;;;;;;;4971780;28;20129;-57
2022/12/12 13:08:10;;;;;;;22.10;11.77;;;5.80;99.90;;;;;;4971823;28;20038;-59
2022/12/12 13:10:39;;;;;;;14.73;10.55;;;5.90;99.90;;;;;;4987813;28;20052;-49
2022/12/12 13:13:25;;;;;;;19.90;11.80;;;6.10;99.90;;;;;;5049655;28;20032;-53
2022/12/12 13:16:12;;;;;;;17.27;12.32;;;6.20;99.90;;;;;;5090689;28;20036;-52
2022/12/12 13:18:41;;;;;;;16.67;10.90;;;6.10;99.90;;;;;;5111982;28;20387;-51
2022/12/12 13:21:30;;;;;;;15.52;11.13;;;6.20;99.90;;;;;;5109665;28;20023;-50
2022/12/12 13:24:18;;;;;;;23.92;16.77;;;6.10;99.90;;;;;;5109086;28;20409;-49
2022/12/12 13:27:14;;;;;;;14.35;10.70;;;6.30;99.90;;;;;;5112817;28;20386;-51
2022/12/12 13:29:52;;;;;;;24.92;17.25;;;6.40;99.90;;;;;;5104231;28;20052;-50